sensor_id;sensor_type;location;lat;lon;timestamp;P1;durP1;ratioP1;P2;durP2;ratioP2
735;SDS011;352;48.626;9.238;2023-04-08T00:00:39;15.27;;;12.70;;
735;SDS011;352;48.626;9.238;2023-04-08T00:03:05;13.40;;;12.00;;
735;SDS011;352;48.626;9.238;2023-04-08T00:05:32;15.82;;;13.13;;
735;SDS011;352;48.626;9.238;2023-04-08T00:07:59;14.77;;;12.30;;
735;SDS011;352;48.626;9.238;2023-04-08T00:10:27;17.27;;;12.70;;
735;SDS011;352;48.626;9.238;2023-04-08T00:12:54;17.67;;;12.40;;
735;SDS011;352;48.626;9.238;2023-04-08T00:15:21;16.73;;;12.48;;
735;SDS011;352;48.626;9.238;2023-04-08T00:17:47;14.57;;;12.02;;
735;SDS011;352;48.626;9.238;2023-04-08T00:20:14;16.00;;;12.45;;
735;SDS011;352;48.626;9.238;2023-04-08T00:22:41;16.63;;;13.88;;
735;SDS011;352;48.626;9.238;2023-04-08T00:25:08;17.30;;;12.50;;
735;SDS011;352;48.626;9.238;2023-04-08T00:27:36;16.77;;;12.35;;
735;SDS011;352;48.626;9.238;2023-04-08T00:30:03;15.82;;;12.85;;
735;SDS011;352;48.626;9.238;2023-04-08T00:32:30;15.60;;;13.48;;
735;SDS011;352;48.626;9.238;2023-04-08T00:34:57;18.67;;;13.95;;
735;SDS011;352;48.626;9.238;2023-04-08T00:37:24;17.15;;;12.75;;
735;SDS011;352;48.626;9.238;2023-04-08T00:39:51;16.45;;;13.57;;
735;SDS011;352;48.626;9.238;2023-04-08T00:42:18;17.40;;;12.63;;
735;SDS011;352;48.626;9.238;2023-04-08T00:44:46;16.40;;;13.20;;
735;SDS011;352;48.626;9.238;2023-04-08T00:47:13;16.52;;;12.30;;
735;SDS011;352;48.626;9.238;2023-04-08T00:49:41;18.23;;;12.75;;
735;SDS011;352;48.626;9.238;2023-04-08T00:52:08;12.10;;;10.77;;
735;SDS011;352;48.626;9.238;2023-04-08T00:54:35;10.93;;;9.82;;
735;SDS011;352;48.626;9.238;2023-04-08T00:57:02;12.55;;;9.95;;
735;SDS011;352;48.626;9.238;2023-04-08T00:59:29;11.88;;;10.27;;
735;SDS011;352;48.626;9.238;2023-04-08T01:02:02;13.05;;;10.43;;
735;SDS011;352;48.626;9.238;2023-04-08T01:04:36;12.02;;;10.45;;
735;SDS011;352;48.626;9.238;2023-04-08T01:07:11;12.88;;;9.93;;
735;SDS011;352;48.626;9.238;2023-04-08T01:09:43;14.23;;;11.65;;
735;SDS011;352;48.626;9.238;2023-04-08T01:12:12;13.82;;;11.77;;
735;SDS011;352;48.626;9.238;2023-04-08T01:14:45;17.52;;;14.63;;
735;SDS011;352;48.626;9.238;2023-04-08T01:17:16;20.27;;;15.88;;
735;SDS011;352;48.626;9.238;2023-04-08T01:19:45;21.30;;;17.15;;
735;SDS011;352;48.626;9.238;2023-04-08T01:22:14;22.33;;;17.73;;
735;SDS011;352;48.626;9.238;2023-04-08T01:24:56;20.27;;;15.13;;
735;SDS011;352;48.626;9.238;2023-04-08T01:27:29;20.10;;;15.90;;
735;SDS011;352;48.626;9.238;2023-04-08T01:29:57;19.67;;;15.88;;
735;SDS011;352;48.626;9.238;2023-04-08T01:32:24;21.13;;;16.10;;
735;SDS011;352;48.626;9.238;2023-04-08T01:34:52;20.73;;;16.45;;
735;SDS011;352;48.626;9.238;2023-04-08T01:37:20;20.13;;;14.98;;
735;SDS011;352;48.626;9.238;2023-04-08T01:39:48;19.50;;;15.88;;
735;SDS011;352;48.626;9.238;2023-04-08T01:42:16;20.70;;;15.98;;
735;SDS011;352;48.626;9.238;2023-04-08T01:44:45;19.98;;;15.65;;
735;SDS011;352;48.626;9.238;2023-04-08T01:47:13;20.95;;;15.52;;
735;SDS011;352;48.626;9.238;2023-04-08T01:49:40;19.48;;;16.00;;
735;SDS011;352;48.626;9.238;2023-04-08T01:52:08;19.75;;;15.80;;
735;SDS011;352;48.626;9.238;2023-04-08T01:54:35;22.42;;;15.82;;
735;SDS011;352;48.626;9.238;2023-04-08T01:57:03;18.13;;;14.60;;
735;SDS011;352;48.626;9.238;2023-04-08T01:59:33;21.27;;;16.52;;
735;SDS011;352;48.626;9.238;2023-04-08T02:02:04;17.10;;;13.88;;
735;SDS011;352;48.626;9.238;2023-04-08T02:04:34;18.02;;;15.30;;
735;SDS011;352;48.626;9.238;2023-04-08T02:07:01;17.65;;;14.55;;
735;SDS011;352;48.626;9.238;2023-04-08T02:09:29;17.98;;;14.95;;
735;SDS011;352;48.626;9.238;2023-04-08T02:11:56;19.13;;;16.52;;
735;SDS011;352;48.626;9.238;2023-04-08T02:14:23;17.63;;;15.10;;
735;SDS011;352;48.626;9.238;2023-04-08T02:16:51;16.95;;;14.52;;
735;SDS011;352;48.626;9.238;2023-04-08T02:19:23;18.08;;;14.63;;
735;SDS011;352;48.626;9.238;2023-04-08T02:21:58;17.20;;;14.30;;
735;SDS011;352;48.626;9.238;2023-04-08T02:24:29;17.80;;;14.60;;
735;SDS011;352;48.626;9.238;2023-04-08T02:26:58;16.08;;;13.32;;
735;SDS011;352;48.626;9.238;2023-04-08T02:29:27;17.20;;;13.45;;
735;SDS011;352;48.626;9.238;2023-04-08T02:31:56;18.15;;;14.57;;
735;SDS011;352;48.626;9.238;2023-04-08T02:34:25;16.85;;;14.40;;
735;SDS011;352;48.626;9.238;2023-04-08T02:36:52;16.13;;;14.32;;
735;SDS011;352;48.626;9.238;2023-04-08T02:39:19;15.50;;;13.00;;
735;SDS011;352;48.626;9.238;2023-04-08T02:41:46;14.82;;;12.95;;
735;SDS011;352;48.626;9.238;2023-04-08T02:44:12;17.35;;;13.55;;
735;SDS011;352;48.626;9.238;2023-04-08T02:46:39;17.05;;;13.60;;
735;SDS011;352;48.626;9.238;2023-04-08T02:49:06;16.23;;;13.13;;
735;SDS011;352;48.626;9.238;2023-04-08T02:51:34;16.63;;;13.40;;
735;SDS011;352;48.626;9.238;2023-04-08T02:54:00;16.20;;;13.85;;
735;SDS011;352;48.626;9.238;2023-04-08T02:56:27;16.77;;;13.00;;
735;SDS011;352;48.626;9.238;2023-04-08T02:58:54;17.85;;;14.68;;
735;SDS011;352;48.626;9.238;2023-04-08T03:01:20;14.77;;;13.18;;
735;SDS011;352;48.626;9.238;2023-04-08T03:03:47;18.45;;;13.85;;
735;SDS011;352;48.626;9.238;2023-04-08T03:06:14;19.33;;;14.60;;
735;SDS011;352;48.626;9.238;2023-04-08T03:08:42;14.43;;;12.60;;
735;SDS011;352;48.626;9.238;2023-04-08T03:11:09;16.70;;;13.90;;
735;SDS011;352;48.626;9.238;2023-04-08T03:13:35;17.15;;;13.52;;
735;SDS011;352;48.626;9.238;2023-04-08T03:16:02;16.70;;;13.77;;
735;SDS011;352;48.626;9.238;2023-04-08T03:18:29;15.45;;;12.57;;
735;SDS011;352;48.626;9.238;2023-04-08T03:20:56;17.23;;;14.95;;
735;SDS011;352;48.626;9.238;2023-04-08T03:23:23;16.73;;;14.05;;
735;SDS011;352;48.626;9.238;2023-04-08T03:25:51;17.85;;;15.43;;
735;SDS011;352;48.626;9.238;2023-04-08T03:28:17;18.73;;;14.52;;
735;SDS011;352;48.626;9.238;2023-04-08T03:30:44;18.33;;;15.02;;
735;SDS011;352;48.626;9.238;2023-04-08T03:33:11;17.83;;;14.35;;
735;SDS011;352;48.626;9.238;2023-04-08T03:35:38;17.42;;;14.27;;
735;SDS011;352;48.626;9.238;2023-04-08T03:38:04;17.38;;;14.95;;
735;SDS011;352;48.626;9.238;2023-04-08T03:40:31;16.40;;;12.95;;
735;SDS011;352;48.626;9.238;2023-04-08T03:42:59;17.00;;;13.30;;
735;SDS011;352;48.626;9.238;2023-04-08T03:45:26;15.88;;;13.38;;
735;SDS011;352;48.626;9.238;2023-04-08T03:47:53;17.80;;;14.63;;
735;SDS011;352;48.626;9.238;2023-04-08T03:50:19;19.08;;;13.93;;
735;SDS011;352;48.626;9.238;2023-04-08T03:52:46;18.58;;;14.05;;
735;SDS011;352;48.626;9.238;2023-04-08T03:55:13;15.85;;;13.10;;
735;SDS011;352;48.626;9.238;2023-04-08T03:57:40;17.70;;;13.75;;
735;SDS011;352;48.626;9.238;2023-04-08T04:00:10;14.82;;;12.20;;
735;SDS011;352;48.626;9.238;2023-04-08T04:02:38;19.13;;;15.77;;
735;SDS011;352;48.626;9.238;2023-04-08T04:05:05;23.17;;;20.77;;
735;SDS011;352;48.626;9.238;2023-04-08T04:07:32;21.63;;;19.42;;
735;SDS011;352;48.626;9.238;2023-04-08T04:09:59;15.60;;;13.77;;
735;SDS011;352;48.626;9.238;2023-04-08T04:12:25;15.23;;;13.23;;
735;SDS011;352;48.626;9.238;2023-04-08T04:14:52;17.00;;;12.55;;
735;SDS011;352;48.626;9.238;2023-04-08T04:17:21;15.18;;;11.70;;
735;SDS011;352;48.626;9.238;2023-04-08T04:19:47;14.35;;;11.55;;
735;SDS011;352;48.626;9.238;2023-04-08T04:22:14;16.23;;;13.00;;
735;SDS011;352;48.626;9.238;2023-04-08T04:24:41;16.40;;;13.73;;
735;SDS011;352;48.626;9.238;2023-04-08T04:27:12;16.30;;;13.18;;
735;SDS011;352;48.626;9.238;2023-04-08T04:29:39;15.55;;;12.48;;
735;SDS011;352;48.626;9.238;2023-04-08T04:32:05;17.63;;;13.05;;
735;SDS011;352;48.626;9.238;2023-04-08T04:34:34;16.75;;;13.45;;
735;SDS011;352;48.626;9.238;2023-04-08T04:37:00;13.90;;;12.10;;
735;SDS011;352;48.626;9.238;2023-04-08T04:39:27;15.60;;;12.18;;
735;SDS011;352;48.626;9.238;2023-04-08T04:41:54;15.82;;;12.80;;
735;SDS011;352;48.626;9.238;2023-04-08T04:44:21;15.82;;;13.13;;
735;SDS011;352;48.626;9.238;2023-04-08T04:46:48;17.23;;;12.90;;
735;SDS011;352;48.626;9.238;2023-04-08T04:49:14;14.18;;;11.23;;
735;SDS011;352;48.626;9.238;2023-04-08T04:51:43;16.60;;;13.15;;
735;SDS011;352;48.626;9.238;2023-04-08T04:54:10;14.90;;;12.25;;
735;SDS011;352;48.626;9.238;2023-04-08T04:56:36;14.20;;;11.45;;
735;SDS011;352;48.626;9.238;2023-04-08T04:59:03;14.25;;;11.57;;
735;SDS011;352;48.626;9.238;2023-04-08T05:01:30;13.65;;;11.88;;
735;SDS011;352;48.626;9.238;2023-04-08T05:03:57;15.35;;;12.65;;
735;SDS011;352;48.626;9.238;2023-04-08T05:06:24;16.15;;;12.60;;
735;SDS011;352;48.626;9.238;2023-04-08T05:08:52;15.50;;;13.27;;
735;SDS011;352;48.626;9.238;2023-04-08T05:11:19;17.60;;;12.85;;
735;SDS011;352;48.626;9.238;2023-04-08T05:13:46;15.98;;;12.25;;
735;SDS011;352;48.626;9.238;2023-04-08T05:16:13;15.80;;;11.95;;
735;SDS011;352;48.626;9.238;2023-04-08T05:18:40;14.40;;;11.55;;
735;SDS011;352;48.626;9.238;2023-04-08T05:21:07;15.93;;;13.38;;
735;SDS011;352;48.626;9.238;2023-04-08T05:23:34;15.25;;;12.82;;
735;SDS011;352;48.626;9.238;2023-04-08T05:26:04;17.70;;;13.75;;
735;SDS011;352;48.626;9.238;2023-04-08T05:28:32;18.65;;;12.68;;
735;SDS011;352;48.626;9.238;2023-04-08T05:30:59;14.82;;;11.95;;
735;SDS011;352;48.626;9.238;2023-04-08T05:33:26;16.40;;;13.35;;
735;SDS011;352;48.626;9.238;2023-04-08T05:35:52;18.98;;;12.90;;
735;SDS011;352;48.626;9.238;2023-04-08T05:38:19;18.83;;;15.23;;
735;SDS011;352;48.626;9.238;2023-04-08T05:40:46;15.85;;;13.43;;
735;SDS011;352;48.626;9.238;2023-04-08T05:43:14;16.80;;;12.85;;
735;SDS011;352;48.626;9.238;2023-04-08T05:45:41;17.15;;;12.30;;
735;SDS011;352;48.626;9.238;2023-04-08T05:48:08;17.58;;;13.40;;
735;SDS011;352;48.626;9.238;2023-04-08T05:50:34;15.15;;;11.90;;
735;SDS011;352;48.626;9.238;2023-04-08T05:53:01;17.63;;;13.48;;
735;SDS011;352;48.626;9.238;2023-04-08T05:55:28;15.32;;;13.18;;
735;SDS011;352;48.626;9.238;2023-04-08T05:57:55;16.10;;;12.93;;
735;SDS011;352;48.626;9.238;2023-04-08T06:00:23;17.20;;;14.18;;
735;SDS011;352;48.626;9.238;2023-04-08T06:02:50;15.07;;;12.70;;
735;SDS011;352;48.626;9.238;2023-04-08T06:05:17;15.25;;;11.25;;
735;SDS011;352;48.626;9.238;2023-04-08T06:07:44;16.90;;;13.93;;
735;SDS011;352;48.626;9.238;2023-04-08T06:10:11;15.40;;;13.45;;
735;SDS011;352;48.626;9.238;2023-04-08T06:12:37;18.23;;;14.15;;
735;SDS011;352;48.626;9.238;2023-04-08T06:15:05;17.23;;;14.10;;
735;SDS011;352;48.626;9.238;2023-04-08T06:17:35;19.02;;;12.25;;
735;SDS011;352;48.626;9.238;2023-04-08T06:20:03;16.00;;;12.40;;
735;SDS011;352;48.626;9.238;2023-04-08T06:22:30;15.40;;;11.50;;
735;SDS011;352;48.626;9.238;2023-04-08T06:24:57;20.92;;;15.15;;
735;SDS011;352;48.626;9.238;2023-04-08T06:27:23;22.67;;;13.90;;
735;SDS011;352;48.626;9.238;2023-04-08T06:29:50;19.58;;;15.13;;
735;SDS011;352;48.626;9.238;2023-04-08T06:32:17;20.48;;;15.05;;
735;SDS011;352;48.626;9.238;2023-04-08T06:34:45;18.25;;;15.93;;
735;SDS011;352;48.626;9.238;2023-04-08T06:37:12;16.13;;;14.40;;
735;SDS011;352;48.626;9.238;2023-04-08T06:39:39;18.65;;;14.45;;
735;SDS011;352;48.626;9.238;2023-04-08T06:42:05;17.08;;;13.95;;
735;SDS011;352;48.626;9.238;2023-04-08T06:44:32;15.45;;;12.73;;
735;SDS011;352;48.626;9.238;2023-04-08T06:46:59;16.08;;;13.93;;
735;SDS011;352;48.626;9.238;2023-04-08T06:49:26;16.17;;;14.23;;
735;SDS011;352;48.626;9.238;2023-04-08T06:51:54;17.17;;;14.85;;
735;SDS011;352;48.626;9.238;2023-04-08T06:54:20;17.73;;;13.93;;
735;SDS011;352;48.626;9.238;2023-04-08T06:56:47;16.88;;;14.68;;
735;SDS011;352;48.626;9.238;2023-04-08T06:59:14;17.20;;;15.40;;
735;SDS011;352;48.626;9.238;2023-04-08T07:01:41;18.30;;;15.18;;
735;SDS011;352;48.626;9.238;2023-04-08T07:04:08;19.42;;;16.60;;
735;SDS011;352;48.626;9.238;2023-04-08T07:06:34;17.33;;;15.35;;
735;SDS011;352;48.626;9.238;2023-04-08T07:09:02;18.17;;;16.20;;
735;SDS011;352;48.626;9.238;2023-04-08T07:11:29;20.55;;;17.30;;
735;SDS011;352;48.626;9.238;2023-04-08T07:13:56;17.55;;;15.70;;
735;SDS011;352;48.626;9.238;2023-04-08T07:16:23;18.63;;;16.42;;
735;SDS011;352;48.626;9.238;2023-04-08T07:18:49;16.65;;;14.93;;
735;SDS011;352;48.626;9.238;2023-04-08T07:21:16;18.23;;;14.32;;
735;SDS011;352;48.626;9.238;2023-04-08T07:23:43;17.90;;;14.68;;
735;SDS011;352;48.626;9.238;2023-04-08T07:26:11;14.90;;;13.40;;
735;SDS011;352;48.626;9.238;2023-04-08T07:28:38;16.88;;;14.15;;
735;SDS011;352;48.626;9.238;2023-04-08T07:31:09;15.18;;;13.35;;
735;SDS011;352;48.626;9.238;2023-04-08T07:33:40;14.23;;;12.73;;
735;SDS011;352;48.626;9.238;2023-04-08T07:36:07;13.73;;;12.38;;
735;SDS011;352;48.626;9.238;2023-04-08T07:38:34;14.02;;;12.30;;
735;SDS011;352;48.626;9.238;2023-04-08T07:41:01;14.60;;;12.80;;
735;SDS011;352;48.626;9.238;2023-04-08T07:43:30;14.07;;;11.98;;
735;SDS011;352;48.626;9.238;2023-04-08T07:46:01;14.15;;;10.90;;
735;SDS011;352;48.626;9.238;2023-04-08T07:48:28;12.85;;;11.30;;
735;SDS011;352;48.626;9.238;2023-04-08T07:50:55;13.00;;;11.65;;
735;SDS011;352;48.626;9.238;2023-04-08T07:53:22;16.80;;;13.70;;
735;SDS011;352;48.626;9.238;2023-04-08T07:55:50;14.98;;;12.75;;
735;SDS011;352;48.626;9.238;2023-04-08T07:58:17;13.82;;;12.43;;
735;SDS011;352;48.626;9.238;2023-04-08T08:00:45;16.40;;;13.40;;
735;SDS011;352;48.626;9.238;2023-04-08T08:03:11;15.85;;;14.15;;
735;SDS011;352;48.626;9.238;2023-04-08T08:05:38;17.42;;;15.50;;
735;SDS011;352;48.626;9.238;2023-04-08T08:08:05;18.33;;;15.65;;
735;SDS011;352;48.626;9.238;2023-04-08T08:10:32;17.37;;;13.97;;
735;SDS011;352;48.626;9.238;2023-04-08T08:12:59;19.30;;;14.53;;
735;SDS011;352;48.626;9.238;2023-04-08T08:15:26;16.75;;;15.05;;
735;SDS011;352;48.626;9.238;2023-04-08T08:17:54;15.98;;;14.07;;
735;SDS011;352;48.626;9.238;2023-04-08T08:20:20;16.90;;;14.40;;
735;SDS011;352;48.626;9.238;2023-04-08T08:22:47;16.57;;;14.07;;
735;SDS011;352;48.626;9.238;2023-04-08T08:25:14;15.30;;;12.37;;
735;SDS011;352;48.626;9.238;2023-04-08T08:27:41;15.17;;;13.57;;
735;SDS011;352;48.626;9.238;2023-04-08T08:30:09;15.50;;;13.07;;
735;SDS011;352;48.626;9.238;2023-04-08T08:32:36;15.30;;;13.70;;
735;SDS011;352;48.626;9.238;2023-04-08T08:35:05;17.20;;;14.30;;
735;SDS011;352;48.626;9.238;2023-04-08T08:37:32;15.37;;;13.70;;
735;SDS011;352;48.626;9.238;2023-04-08T08:39:59;15.17;;;13.57;;
735;SDS011;352;48.626;9.238;2023-04-08T08:42:25;17.67;;;14.87;;
735;SDS011;352;48.626;9.238;2023-04-08T08:44:52;14.97;;;13.47;;
735;SDS011;352;48.626;9.238;2023-04-08T08:47:20;16.40;;;13.27;;
735;SDS011;352;48.626;9.238;2023-04-08T08:49:46;15.27;;;13.67;;
735;SDS011;352;48.626;9.238;2023-04-08T08:52:15;14.93;;;13.33;;
735;SDS011;352;48.626;9.238;2023-04-08T08:54:43;14.23;;;12.73;;
735;SDS011;352;48.626;9.238;2023-04-08T08:57:15;17.50;;;14.30;;
735;SDS011;352;48.626;9.238;2023-04-08T08:59:44;16.17;;;14.57;;
735;SDS011;352;48.626;9.238;2023-04-08T09:02:21;14.00;;;12.57;;
735;SDS011;352;48.626;9.238;2023-04-08T09:04:55;17.40;;;14.33;;
735;SDS011;352;48.626;9.238;2023-04-08T09:07:24;14.10;;;12.53;;
735;SDS011;352;48.626;9.238;2023-04-08T09:09:52;16.90;;;14.80;;
735;SDS011;352;48.626;9.238;2023-04-08T09:12:20;16.50;;;14.73;;
735;SDS011;352;48.626;9.238;2023-04-08T09:14:47;15.33;;;13.83;;
735;SDS011;352;48.626;9.238;2023-04-08T09:17:14;15.13;;;13.63;;
735;SDS011;352;48.626;9.238;2023-04-08T09:19:50;16.90;;;14.80;;
735;SDS011;352;48.626;9.238;2023-04-08T09:22:35;16.33;;;14.60;;
735;SDS011;352;48.626;9.238;2023-04-08T09:25:24;15.83;;;14.23;;
735;SDS011;352;48.626;9.238;2023-04-08T09:27:51;15.40;;;13.40;;
735;SDS011;352;48.626;9.238;2023-04-08T09:30:19;15.20;;;13.70;;
735;SDS011;352;48.626;9.238;2023-04-08T09:32:47;16.10;;;14.53;;
735;SDS011;352;48.626;9.238;2023-04-08T09:35:15;15.70;;;14.10;;
735;SDS011;352;48.626;9.238;2023-04-08T09:37:43;15.70;;;13.60;;
735;SDS011;352;48.626;9.238;2023-04-08T09:40:12;15.93;;;14.43;;
735;SDS011;352;48.626;9.238;2023-04-08T09:42:41;16.60;;;14.80;;
735;SDS011;352;48.626;9.238;2023-04-08T09:45:11;15.33;;;13.53;;
735;SDS011;352;48.626;9.238;2023-04-08T09:47:41;16.30;;;14.70;;
735;SDS011;352;48.626;9.238;2023-04-08T09:50:17;14.93;;;13.43;;
735;SDS011;352;48.626;9.238;2023-04-08T09:52:49;14.07;;;12.77;;
735;SDS011;352;48.626;9.238;2023-04-08T09:55:22;15.87;;;14.27;;
735;SDS011;352;48.626;9.238;2023-04-08T09:57:54;14.30;;;12.90;;
735;SDS011;352;48.626;9.238;2023-04-08T10:00:27;14.10;;;12.70;;
735;SDS011;352;48.626;9.238;2023-04-08T10:03:00;15.30;;;13.80;;
735;SDS011;352;48.626;9.238;2023-04-08T10:05:32;14.53;;;13.23;;
735;SDS011;352;48.626;9.238;2023-04-08T10:08:03;15.10;;;13.80;;
735;SDS011;352;48.626;9.238;2023-04-08T10:10:30;14.37;;;13.03;;
735;SDS011;352;48.626;9.238;2023-04-08T10:12:58;14.47;;;13.17;;
735;SDS011;352;48.626;9.238;2023-04-08T10:15:26;16.27;;;14.70;;
735;SDS011;352;48.626;9.238;2023-04-08T10:17:54;15.20;;;13.93;;
735;SDS011;352;48.626;9.238;2023-04-08T10:23:08;14.37;;;13.07;;
735;SDS011;352;48.626;9.238;2023-04-08T10:25:37;15.70;;;14.17;;
735;SDS011;352;48.626;9.238;2023-04-08T10:30:50;14.73;;;13.33;;
735;SDS011;352;48.626;9.238;2023-04-08T10:33:20;14.87;;;13.57;;
735;SDS011;352;48.626;9.238;2023-04-08T10:35:48;15.60;;;14.10;;
735;SDS011;352;48.626;9.238;2023-04-08T10:38:19;18.40;;;16.53;;
735;SDS011;352;48.626;9.238;2023-04-08T10:40:46;16.50;;;14.93;;
735;SDS011;352;48.626;9.238;2023-04-08T10:43:15;16.23;;;14.73;;
735;SDS011;352;48.626;9.238;2023-04-08T10:45:42;29.10;;;22.73;;
735;SDS011;352;48.626;9.238;2023-04-08T10:48:10;22.40;;;20.00;;
735;SDS011;352;48.626;9.238;2023-04-08T10:50:38;37.73;;;32.10;;
735;SDS011;352;48.626;9.238;2023-04-08T10:53:06;22.33;;;19.97;;
735;SDS011;352;48.626;9.238;2023-04-08T10:55:34;15.10;;;13.70;;
735;SDS011;352;48.626;9.238;2023-04-08T10:58:04;18.90;;;17.20;;
735;SDS011;352;48.626;9.238;2023-04-08T11:00:32;18.00;;;16.30;;
735;SDS011;352;48.626;9.238;2023-04-08T11:02:59;14.83;;;13.53;;
735;SDS011;352;48.626;9.238;2023-04-08T11:05:26;15.90;;;14.40;;
735;SDS011;352;48.626;9.238;2023-04-08T11:07:53;15.97;;;14.47;;
735;SDS011;352;48.626;9.238;2023-04-08T11:10:19;15.93;;;14.53;;
735;SDS011;352;48.626;9.238;2023-04-08T11:12:48;15.63;;;14.07;;
735;SDS011;352;48.626;9.238;2023-04-08T11:15:15;17.13;;;15.43;;
735;SDS011;352;48.626;9.238;2023-04-08T11:17:43;15.87;;;14.27;;
735;SDS011;352;48.626;9.238;2023-04-08T11:20:10;14.70;;;13.40;;
735;SDS011;352;48.626;9.238;2023-04-08T11:22:37;15.97;;;14.20;;
735;SDS011;352;48.626;9.238;2023-04-08T11:25:05;15.47;;;13.90;;
735;SDS011;352;48.626;9.238;2023-04-08T11:27:34;16.10;;;14.50;;
735;SDS011;352;48.626;9.238;2023-04-08T11:30:02;16.00;;;14.50;;
735;SDS011;352;48.626;9.238;2023-04-08T11:32:30;15.87;;;14.40;;
735;SDS011;352;48.626;9.238;2023-04-08T11:34:58;15.40;;;13.90;;
735;SDS011;352;48.626;9.238;2023-04-08T11:37:25;17.43;;;14.27;;
735;SDS011;352;48.626;9.238;2023-04-08T11:39:53;17.37;;;15.60;;
735;SDS011;352;48.626;9.238;2023-04-08T11:42:26;15.87;;;14.37;;
735;SDS011;352;48.626;9.238;2023-04-08T11:44:53;15.57;;;13.93;;
735;SDS011;352;48.626;9.238;2023-04-08T11:47:22;17.67;;;15.93;;
735;SDS011;352;48.626;9.238;2023-04-08T11:49:56;15.37;;;13.77;;
735;SDS011;352;48.626;9.238;2023-04-08T11:55:08;15.63;;;13.93;;
735;SDS011;352;48.626;9.238;2023-04-08T11:57:36;16.57;;;15.23;;
735;SDS011;352;48.626;9.238;2023-04-08T12:00:03;15.97;;;14.47;;
735;SDS011;352;48.626;9.238;2023-04-08T12:02:32;15.83;;;14.30;;
735;SDS011;352;48.626;9.238;2023-04-08T12:04:59;15.50;;;13.90;;
735;SDS011;352;48.626;9.238;2023-04-08T12:07:27;17.13;;;15.33;;
735;SDS011;352;48.626;9.238;2023-04-08T12:09:53;14.37;;;13.00;;
735;SDS011;352;48.626;9.238;2023-04-08T12:12:20;15.97;;;14.13;;
735;SDS011;352;48.626;9.238;2023-04-08T12:14:47;13.83;;;12.37;;
735;SDS011;352;48.626;9.238;2023-04-08T12:17:13;14.60;;;13.10;;
735;SDS011;352;48.626;9.238;2023-04-08T12:19:42;14.67;;;13.17;;
735;SDS011;352;48.626;9.238;2023-04-08T12:22:08;14.93;;;13.50;;
735;SDS011;352;48.626;9.238;2023-04-08T12:24:35;15.33;;;13.77;;
735;SDS011;352;48.626;9.238;2023-04-08T12:27:02;13.80;;;12.50;;
735;SDS011;352;48.626;9.238;2023-04-08T12:29:29;14.60;;;12.57;;
735;SDS011;352;48.626;9.238;2023-04-08T12:31:56;14.33;;;12.80;;
735;SDS011;352;48.626;9.238;2023-04-08T12:34:23;17.20;;;13.47;;
735;SDS011;352;48.626;9.238;2023-04-08T12:36:51;14.57;;;13.00;;
735;SDS011;352;48.626;9.238;2023-04-08T12:39:19;17.47;;;15.67;;
735;SDS011;352;48.626;9.238;2023-04-08T12:41:46;14.73;;;13.33;;
735;SDS011;352;48.626;9.238;2023-04-08T12:44:13;15.10;;;13.03;;
735;SDS011;352;48.626;9.238;2023-04-08T12:46:39;14.37;;;12.70;;
735;SDS011;352;48.626;9.238;2023-04-08T12:49:06;16.27;;;14.67;;
735;SDS011;352;48.626;9.238;2023-04-08T12:51:33;15.80;;;14.30;;
735;SDS011;352;48.626;9.238;2023-04-08T12:54:01;13.67;;;12.37;;
735;SDS011;352;48.626;9.238;2023-04-08T12:56:28;13.60;;;12.40;;
735;SDS011;352;48.626;9.238;2023-04-08T12:58:55;15.03;;;13.63;;
735;SDS011;352;48.626;9.238;2023-04-08T13:01:22;15.23;;;13.80;;
735;SDS011;352;48.626;9.238;2023-04-08T13:03:49;15.70;;;14.20;;
735;SDS011;352;48.626;9.238;2023-04-08T13:06:15;15.73;;;14.27;;
735;SDS011;352;48.626;9.238;2023-04-08T13:08:42;15.63;;;14.20;;
735;SDS011;352;48.626;9.238;2023-04-08T13:11:10;16.33;;;14.80;;
735;SDS011;352;48.626;9.238;2023-04-08T13:13:37;16.40;;;14.90;;
735;SDS011;352;48.626;9.238;2023-04-08T13:16:04;15.10;;;13.70;;
735;SDS011;352;48.626;9.238;2023-04-08T13:18:30;16.83;;;15.23;;
735;SDS011;352;48.626;9.238;2023-04-08T13:20:57;15.63;;;14.03;;
735;SDS011;352;48.626;9.238;2023-04-08T13:23:24;16.07;;;14.67;;
735;SDS011;352;48.626;9.238;2023-04-08T13:25:51;16.30;;;14.70;;
735;SDS011;352;48.626;9.238;2023-04-08T13:28:19;16.87;;;15.17;;
735;SDS011;352;48.626;9.238;2023-04-08T13:30:46;16.70;;;15.10;;
735;SDS011;352;48.626;9.238;2023-04-08T13:33:12;15.60;;;14.20;;
735;SDS011;352;48.626;9.238;2023-04-08T13:35:39;15.50;;;14.10;;
735;SDS011;352;48.626;9.238;2023-04-08T13:38:06;17.40;;;15.70;;
735;SDS011;352;48.626;9.238;2023-04-08T13:40:33;15.63;;;14.10;;
735;SDS011;352;48.626;9.238;2023-04-08T13:43:00;15.60;;;14.07;;
735;SDS011;352;48.626;9.238;2023-04-08T13:45:28;16.87;;;15.30;;
735;SDS011;352;48.626;9.238;2023-04-08T13:47:55;18.63;;;14.97;;
735;SDS011;352;48.626;9.238;2023-04-08T13:50:22;14.97;;;13.47;;
735;SDS011;352;48.626;9.238;2023-04-08T13:52:48;15.80;;;14.30;;
735;SDS011;352;48.626;9.238;2023-04-08T13:55:15;16.43;;;14.63;;
735;SDS011;352;48.626;9.238;2023-04-08T13:57:42;15.90;;;14.27;;
735;SDS011;352;48.626;9.238;2023-04-08T14:00:09;14.57;;;13.17;;
735;SDS011;352;48.626;9.238;2023-04-08T14:02:38;15.93;;;14.33;;
735;SDS011;352;48.626;9.238;2023-04-08T14:05:05;16.00;;;14.30;;
735;SDS011;352;48.626;9.238;2023-04-08T14:07:32;15.83;;;14.33;;
735;SDS011;352;48.626;9.238;2023-04-08T14:09:59;15.40;;;13.80;;
735;SDS011;352;48.626;9.238;2023-04-08T14:12:26;14.90;;;13.37;;
735;SDS011;352;48.626;9.238;2023-04-08T14:14:52;15.40;;;13.90;;
735;SDS011;352;48.626;9.238;2023-04-08T14:17:19;15.03;;;13.57;;
735;SDS011;352;48.626;9.238;2023-04-08T14:19:47;15.93;;;14.13;;
735;SDS011;352;48.626;9.238;2023-04-08T14:22:15;16.10;;;14.10;;
735;SDS011;352;48.626;9.238;2023-04-08T14:24:43;15.63;;;14.13;;
735;SDS011;352;48.626;9.238;2023-04-08T14:27:10;14.90;;;13.40;;
735;SDS011;352;48.626;9.238;2023-04-08T14:29:36;13.80;;;12.40;;
735;SDS011;352;48.626;9.238;2023-04-08T14:32:03;14.60;;;13.20;;
735;SDS011;352;48.626;9.238;2023-04-08T14:34:30;15.27;;;13.93;;
735;SDS011;352;48.626;9.238;2023-04-08T14:36:58;14.37;;;12.97;;
735;SDS011;352;48.626;9.238;2023-04-08T14:39:25;15.07;;;13.67;;
735;SDS011;352;48.626;9.238;2023-04-08T14:41:52;15.43;;;14.03;;
735;SDS011;352;48.626;9.238;2023-04-08T14:44:19;15.57;;;14.07;;
735;SDS011;352;48.626;9.238;2023-04-08T14:46:46;14.90;;;13.57;;
735;SDS011;352;48.626;9.238;2023-04-08T14:49:12;15.93;;;14.33;;
735;SDS011;352;48.626;9.238;2023-04-08T14:51:39;17.13;;;15.43;;
735;SDS011;352;48.626;9.238;2023-04-08T14:54:07;14.87;;;13.50;;
735;SDS011;352;48.626;9.238;2023-04-08T14:56:34;14.93;;;13.53;;
735;SDS011;352;48.626;9.238;2023-04-08T14:59:01;15.87;;;14.27;;
735;SDS011;352;48.626;9.238;2023-04-08T15:01:28;14.70;;;13.30;;
735;SDS011;352;48.626;9.238;2023-04-08T15:03:56;14.67;;;13.10;;
735;SDS011;352;48.626;9.238;2023-04-08T15:06:22;15.47;;;13.67;;
735;SDS011;352;48.626;9.238;2023-04-08T15:08:50;15.33;;;13.93;;
735;SDS011;352;48.626;9.238;2023-04-08T15:11:18;15.53;;;13.83;;
735;SDS011;352;48.626;9.238;2023-04-08T15:13:45;14.87;;;13.43;;
735;SDS011;352;48.626;9.238;2023-04-08T15:16:12;15.53;;;14.13;;
735;SDS011;352;48.626;9.238;2023-04-08T15:18:39;14.43;;;13.00;;
735;SDS011;352;48.626;9.238;2023-04-08T15:21:06;16.20;;;14.60;;
735;SDS011;352;48.626;9.238;2023-04-08T15:23:33;15.87;;;14.27;;
735;SDS011;352;48.626;9.238;2023-04-08T15:25:59;14.67;;;13.17;;